createdAt,value
2018-05-26T00:01:03.468Z,71.29
2018-05-26T00:03:32.474Z,71.75
2018-05-26T00:06:00.820Z,71.81
2018-05-26T00:08:30.194Z,71.79
2018-05-26T00:10:58.587Z,72.72
2018-05-26T00:13:26.980Z,72.79
2018-05-26T00:15:55.307Z,72.87
2018-05-26T00:18:23.673Z,73.33
2018-05-26T00:20:52.558Z,73.46
2018-05-26T00:23:20.904Z,73.72
2018-05-26T00:25:49.960Z,74.22
2018-05-26T00:28:18.626Z,73.90
2018-05-26T00:30:46.971Z,73.75
2018-05-26T00:33:15.335Z,74.08
2018-05-26T00:35:43.663Z,73.90
2018-05-26T00:38:12.378Z,73.78
2018-05-26T00:40:40.725Z,73.09
2018-05-26T00:43:09.205Z,73.51
2018-05-26T00:45:37.576Z,73.93
2018-05-26T00:48:05.971Z,72.94
2018-05-26T00:50:34.882Z,72.93
2018-05-26T00:53:03.250Z,73.76
2018-05-26T00:55:31.833Z,73.78
2018-05-26T00:58:00.625Z,73.91
2018-05-26T01:00:30.600Z,74.17
2018-05-26T01:02:58.965Z,74.15
2018-05-26T01:05:27.622Z,74.44
2018-05-26T01:07:55.993Z,73.45
2018-05-26T01:10:24.378Z,74.66
2018-05-26T01:12:52.747Z,74.25
2018-05-26T01:15:21.361Z,74.35
2018-05-26T01:17:50.582Z,74.19
2018-05-26T01:20:18.909Z,73.84
2018-05-26T01:22:47.579Z,72.88
2018-05-26T01:25:16.680Z,72.60
2018-05-26T01:27:45.037Z,72.24
2018-05-26T01:30:13.890Z,72.69
2018-05-26T01:32:42.307Z,73.08
2018-05-26T01:35:11.047Z,72.93
2018-05-26T01:37:39.832Z,72.96
2018-05-26T01:40:09.418Z,72.87
2018-05-26T01:42:38.575Z,72.11
2018-05-26T01:45:06.929Z,72.59
2018-05-26T01:47:35.288Z,72.90
2018-05-26T01:50:03.684Z,72.98
2018-05-26T01:52:33.661Z,72.89
2018-05-26T01:55:02.054Z,73.31
2018-05-26T01:57:30.417Z,74.75
2018-05-26T01:59:58.758Z,75.20
2018-05-26T02:02:27.615Z,75.65
2018-05-26T02:04:55.977Z,75.45
2018-05-26T02:07:24.328Z,74.98
2018-05-26T02:09:52.723Z,75.33
2018-05-26T02:12:21.185Z,75.49
2018-05-26T02:14:49.555Z,74.85
2018-05-26T02:17:17.909Z,74.76
2018-05-26T02:19:46.434Z,74.25
2018-05-26T02:22:15.532Z,73.13
2018-05-26T02:24:44.121Z,74.33
2018-05-26T02:27:12.458Z,75.72
2018-05-26T02:29:40.873Z,75.79
2018-05-26T02:32:09.706Z,75.98
2018-05-26T02:34:38.116Z,74.41
2018-05-26T02:37:07.364Z,73.85
2018-05-26T02:39:36.534Z,72.84
2018-05-26T02:42:04.928Z,72.78
2018-05-26T02:44:33.288Z,72.85
2018-05-26T02:47:02.179Z,73.03
2018-05-26T02:49:30.584Z,73.72
2018-05-26T02:51:58.932Z,73.60
2018-05-26T02:54:28.591Z,74.32
2018-05-26T02:56:58.161Z,74.60
2018-05-26T02:59:26.548Z,75.32
2018-05-26T03:01:55.611Z,76.30
2018-05-26T03:04:29.521Z,77.06
2018-05-26T03:07:04.715Z,77.20
2018-05-26T03:09:38.658Z,76.95
2018-05-26T03:12:12.521Z,77.24
2018-05-26T03:14:46.563Z,77.20
2018-05-26T03:17:15.851Z,76.50
2018-05-26T03:19:44.207Z,75.43
2018-05-26T03:22:13.714Z,74.97
2018-05-26T03:24:42.599Z,75.72
2018-05-26T03:27:11.157Z,75.41
2018-05-26T03:29:39.518Z,75.99
2018-05-26T03:32:08.705Z,76.95
2018-05-26T03:34:37.081Z,76.57
2018-05-26T03:37:06.289Z,76.40
2018-05-26T03:39:34.904Z,76.99
2018-05-26T03:42:03.238Z,76.70
2018-05-26T03:44:32.654Z,77.27
2018-05-26T03:47:01.884Z,77.24
2018-05-26T03:49:31.380Z,76.85
2018-05-26T03:51:59.749Z,76.78
2018-05-26T03:54:40.828Z,76.66
2018-05-26T03:57:20.864Z,77.85
2018-05-26T04:02:58.499Z,77.41
2018-05-26T04:05:27.181Z,77.35
2018-05-26T04:07:56.648Z,77.88
2018-05-26T04:10:25.949Z,76.73
2018-05-26T04:12:54.561Z,77.60
2018-05-26T04:15:23.228Z,77.42
2018-05-26T04:17:51.556Z,77.38
2018-05-26T04:20:19.933Z,77.33
2018-05-26T04:22:48.438Z,77.99
2018-05-26T04:25:16.811Z,78.07
2018-05-26T04:27:45.160Z,77.84
2018-05-26T04:30:13.532Z,77.63
2018-05-26T04:32:42.101Z,77.52
2018-05-26T04:35:11.028Z,77.60
2018-05-26T04:37:39.371Z,77.84
2018-05-26T04:40:08.206Z,77.87
2018-05-26T04:42:36.640Z,78.25
2018-05-26T04:45:05.010Z,77.89
2018-05-26T04:47:34.131Z,77.61
2018-05-26T04:50:03.438Z,77.63
2018-05-26T04:52:32.255Z,77.69
2018-05-26T04:55:00.636Z,77.77
2018-05-26T04:57:28.984Z,77.83
2018-05-26T04:59:57.347Z,77.33
2018-05-26T05:02:25.691Z,77.32
2018-05-26T05:04:54.111Z,77.00
2018-05-26T05:07:22.456Z,76.68
2018-05-26T05:09:50.835Z,76.40
2018-05-26T05:12:19.563Z,76.11
2018-05-26T05:14:47.966Z,75.77
2018-05-26T05:17:16.361Z,75.60
2018-05-26T05:19:45.673Z,75.94
2018-05-26T05:22:14.741Z,75.72
2018-05-26T05:24:43.148Z,75.70
2018-05-26T05:27:12.413Z,75.22
2018-05-26T05:29:40.844Z,74.71
2018-05-26T05:32:09.203Z,74.55
2018-05-26T05:34:37.564Z,74.61
2018-05-26T05:37:05.956Z,74.27
2018-05-26T05:39:34.334Z,74.01
2018-05-26T05:42:03.596Z,74.02
2018-05-26T05:44:33.046Z,73.74
2018-05-26T05:47:01.385Z,73.18
2018-05-26T05:49:29.766Z,72.68
2018-05-26T05:51:58.160Z,72.83
2018-05-26T05:54:26.532Z,72.86
2018-05-26T05:56:54.917Z,72.88
2018-05-26T05:59:23.333Z,72.40
2018-05-26T06:01:52.977Z,72.15
2018-05-26T06:04:22.260Z,72.32
2018-05-26T06:06:50.634Z,71.96
2018-05-26T06:09:19.153Z,71.85
2018-05-26T06:11:47.983Z,71.78
2018-05-26T06:14:16.704Z,71.58
2018-05-26T06:16:45.035Z,71.10
2018-05-26T06:19:13.755Z,71.35
2018-05-26T06:21:42.541Z,70.81
2018-05-26T06:24:11.348Z,69.78
2018-05-26T06:26:39.726Z,69.28
2018-05-26T06:29:08.113Z,68.63
2018-05-26T06:31:36.578Z,69.10
2018-05-26T06:34:05.255Z,68.61
2018-05-26T06:36:33.944Z,68.09
2018-05-26T06:39:03.145Z,66.27
2018-05-26T06:41:32.417Z,65.93
2018-05-26T06:44:01.488Z,66.68
2018-05-26T06:46:30.765Z,65.65
2018-05-26T06:48:59.869Z,65.85
2018-05-26T06:51:28.225Z,65.30
2018-05-26T06:53:56.997Z,63.56
2018-05-26T06:56:26.432Z,63.05
2018-05-26T06:58:55.191Z,62.91
2018-05-26T07:01:24.471Z,62.64
2018-05-26T07:03:52.829Z,62.11
2018-05-26T07:06:21.231Z,62.28
2018-05-26T07:08:50.293Z,61.68
2018-05-26T07:11:18.914Z,61.28
2018-05-26T07:13:48.881Z,61.08
2018-05-26T07:16:18.101Z,60.56
2018-05-26T07:18:47.355Z,58.00
2018-05-26T07:21:15.728Z,58.59
2018-05-26T07:23:44.516Z,56.49
2018-05-26T07:26:13.461Z,56.06
2018-05-26T07:28:41.797Z,56.15
2018-05-26T07:31:10.492Z,55.45
2018-05-26T07:33:39.665Z,54.65
2018-05-26T07:36:08.196Z,55.30
2018-05-26T07:38:36.550Z,54.61
2018-05-26T07:41:04.927Z,53.95
2018-05-26T07:43:33.266Z,54.09
2018-05-26T07:46:01.955Z,54.47
2018-05-26T07:48:30.283Z,54.05
2018-05-26T07:50:58.641Z,53.24
2018-05-26T07:53:27.713Z,52.45
2018-05-26T07:55:56.078Z,53.17
2018-05-26T07:58:25.050Z,52.86
2018-05-26T08:00:53.860Z,53.23
2018-05-26T08:03:22.186Z,53.10
2018-05-26T08:05:50.559Z,54.62
2018-05-26T08:08:18.901Z,53.87
2018-05-26T08:10:47.326Z,51.86
2018-05-26T08:13:15.686Z,52.85
2018-05-26T08:15:45.471Z,52.60
2018-05-26T08:18:13.799Z,52.66
2018-05-26T08:20:42.635Z,52.20
2018-05-26T08:23:14.721Z,52.16
2018-05-26T08:25:43.341Z,51.25
2018-05-26T08:28:11.983Z,51.79
2018-05-26T08:30:40.350Z,50.63
2018-05-26T08:33:09.241Z,50.42
2018-05-26T08:35:37.591Z,50.66
2018-05-26T08:38:05.930Z,51.50
2018-05-26T08:40:34.294Z,51.07
2018-05-26T08:43:02.626Z,51.93
2018-05-26T08:45:31.034Z,52.02
2018-05-26T08:48:00.130Z,52.13
2018-05-26T08:50:28.504Z,52.15
2018-05-26T08:52:56.871Z,52.51
2018-05-26T08:55:25.237Z,50.91
2018-05-26T08:57:53.588Z,50.24
2018-05-26T09:00:22.015Z,49.56
2018-05-26T09:02:50.358Z,49.15
2018-05-26T09:05:18.724Z,49.17
2018-05-26T09:07:47.669Z,48.92
2018-05-26T09:10:16.726Z,50.17
2018-05-26T09:12:45.281Z,49.25
2018-05-26T09:15:13.623Z,49.51
2018-05-26T09:17:41.974Z,49.00
2018-05-26T09:20:10.388Z,48.39
2018-05-26T09:22:39.260Z,48.37
2018-05-26T09:25:08.154Z,49.13
2018-05-26T09:27:36.489Z,50.66
2018-05-26T09:30:05.721Z,49.46
2018-05-26T09:32:34.066Z,50.51
2018-05-26T09:35:02.752Z,49.34
2018-05-26T09:37:31.072Z,48.91
2018-05-26T09:39:59.462Z,50.03
2018-05-26T09:42:27.802Z,50.16
2018-05-26T09:44:56.747Z,47.73
2018-05-26T09:47:25.084Z,47.22
2018-05-26T09:49:53.411Z,46.33
2018-05-26T09:52:22.678Z,45.35
2018-05-26T09:54:51.133Z,42.87
2018-05-26T09:57:19.801Z,43.28
2018-05-26T09:59:48.126Z,43.29
2018-05-26T10:02:16.490Z,42.25
2018-05-26T10:04:45.998Z,43.16
2018-05-26T10:07:14.397Z,42.74
2018-05-26T10:09:43.581Z,41.47
2018-05-26T10:12:12.223Z,40.98
2018-05-26T10:14:40.553Z,40.40
2018-05-26T10:17:08.973Z,40.12
2018-05-26T10:19:37.394Z,40.76
2018-05-26T10:22:09.622Z,40.95
2018-05-26T10:24:37.955Z,40.58
2018-05-26T10:27:06.345Z,40.84
2018-05-26T10:29:34.686Z,39.86
2018-05-26T10:32:03.037Z,39.28
2018-05-26T10:34:31.771Z,38.39
2018-05-26T10:37:01.569Z,38.47
2018-05-26T10:39:30.275Z,38.38
2018-05-26T10:41:58.756Z,38.30
2018-05-26T10:44:27.121Z,39.26
2018-05-26T10:46:55.505Z,40.03
2018-05-26T10:49:23.909Z,38.47
2018-05-26T10:51:53.104Z,38.47
2018-05-26T10:54:21.961Z,38.42
2018-05-26T10:56:51.244Z,38.08
2018-05-26T10:59:19.965Z,37.55
2018-05-26T11:01:48.360Z,36.85
2018-05-26T11:04:22.988Z,36.96
2018-05-26T11:06:51.345Z,36.22
2018-05-26T11:09:20.242Z,35.96
2018-05-26T11:11:48.598Z,37.11
2018-05-26T11:14:17.394Z,36.22
2018-05-26T11:16:46.083Z,36.27
2018-05-26T11:19:14.407Z,36.52
2018-05-26T11:21:43.089Z,35.98
2018-05-26T11:24:11.516Z,36.33
2018-05-26T11:26:40.393Z,37.47
2018-05-26T11:29:08.861Z,37.02
2018-05-26T11:31:37.255Z,36.66
2018-05-26T11:34:05.574Z,36.57
2018-05-26T11:36:33.941Z,36.58
2018-05-26T11:39:04.470Z,35.83
2018-05-26T11:41:32.846Z,37.43
2018-05-26T11:44:01.835Z,36.27
2018-05-26T11:46:30.254Z,35.27
2018-05-26T11:48:58.590Z,35.20
2018-05-26T11:51:27.830Z,36.93
2018-05-26T11:53:56.159Z,35.19
2018-05-26T11:56:24.524Z,37.18
2018-05-26T11:58:52.850Z,35.45
2018-05-26T12:01:21.221Z,34.29
2018-05-26T12:03:49.569Z,34.25
2018-05-26T12:06:17.931Z,33.43
2018-05-26T12:08:46.688Z,33.50
2018-05-26T12:11:15.147Z,34.16
2018-05-26T12:13:45.249Z,34.27
2018-05-26T12:16:13.959Z,35.83
2018-05-26T12:18:42.292Z,36.01
2018-05-26T12:21:10.632Z,35.66
2018-05-26T12:23:38.971Z,35.81
2018-05-26T12:26:07.404Z,34.53
2018-05-26T12:28:36.028Z,35.39
2018-05-26T12:31:04.709Z,34.34
2018-05-26T12:33:33.749Z,33.62
2018-05-26T12:36:02.903Z,33.54
2018-05-26T12:38:31.476Z,34.19
2018-05-26T12:41:00.359Z,33.06
2018-05-26T12:43:29.349Z,32.97
2018-05-26T12:45:57.712Z,33.34
2018-05-26T12:48:26.050Z,34.56
2018-05-26T12:50:54.461Z,33.94
2018-05-26T12:53:23.075Z,34.40
2018-05-26T12:55:51.441Z,34.59
2018-05-26T12:58:20.562Z,34.12
2018-05-26T13:00:49.150Z,33.99
2018-05-26T13:03:17.530Z,33.28
2018-05-26T13:05:47.148Z,33.10
2018-05-26T13:08:15.471Z,35.52
2018-05-26T13:10:43.881Z,34.40
2018-05-26T13:13:12.284Z,34.17
2018-05-26T13:15:40.641Z,33.93
2018-05-26T13:18:08.980Z,34.64
2018-05-26T13:20:37.327Z,34.12
2018-05-26T13:23:05.681Z,34.88
2018-05-26T13:25:34.033Z,36.71
2018-05-26T13:28:03.159Z,35.08
2018-05-26T13:30:31.488Z,32.99
2018-05-26T13:32:59.895Z,32.50
2018-05-26T13:35:28.274Z,32.79
2018-05-26T13:37:56.648Z,34.23
2018-05-26T13:40:25.004Z,34.88
2018-05-26T13:42:53.364Z,35.25
2018-05-26T13:45:22.119Z,35.46
2018-05-26T13:47:51.204Z,34.20
2018-05-26T13:50:19.549Z,33.85
2018-05-26T13:52:49.219Z,32.78
2018-05-26T13:55:18.521Z,33.21
2018-05-26T13:57:48.565Z,32.45
2018-05-26T14:00:17.811Z,32.50
2018-05-26T14:02:46.996Z,33.33
2018-05-26T14:05:16.191Z,33.17
2018-05-26T14:07:44.547Z,33.87
2018-05-26T14:10:13.155Z,33.34
2018-05-26T14:12:42.354Z,33.77
2018-05-26T14:15:11.365Z,32.65
2018-05-26T14:17:39.721Z,33.00
2018-05-26T14:20:08.045Z,32.77
2018-05-26T14:22:38.573Z,32.40
2018-05-26T14:25:06.951Z,31.76
2018-05-26T14:27:36.299Z,31.47
2018-05-26T14:30:04.637Z,31.25
2018-05-26T14:32:32.985Z,31.28
2018-05-26T14:35:01.320Z,31.06
2018-05-26T14:37:29.680Z,30.60
2018-05-26T14:39:58.008Z,31.02
2018-05-26T14:42:26.406Z,31.47
2018-05-26T14:44:54.732Z,29.65
2018-05-26T14:47:24.728Z,29.45
2018-05-26T14:49:53.099Z,28.63
2018-05-26T14:52:21.750Z,28.42
2018-05-26T14:54:50.069Z,28.38
2018-05-26T14:57:18.953Z,28.41
2018-05-26T14:59:47.297Z,28.29
2018-05-26T15:02:15.993Z,28.02
2018-05-26T15:04:44.472Z,27.54
2018-05-26T15:07:13.254Z,27.68
2018-05-26T15:09:42.056Z,27.91
2018-05-26T15:12:10.610Z,28.52
2018-05-26T15:14:38.952Z,27.96
2018-05-26T15:17:07.350Z,28.46
2018-05-26T15:19:36.114Z,28.32
2018-05-26T15:22:05.763Z,28.49
2018-05-26T15:24:35.192Z,28.15
2018-05-26T15:27:03.551Z,27.90
2018-05-26T15:29:34.084Z,28.13
2018-05-26T15:32:02.476Z,27.88
2018-05-26T15:34:30.824Z,28.40
2018-05-26T15:36:59.553Z,28.79
2018-05-26T15:39:28.270Z,28.79
2018-05-26T15:41:56.631Z,29.19
2018-05-26T15:44:25.327Z,29.77
2018-05-26T15:46:53.969Z,30.12
2018-05-26T15:49:23.012Z,30.63
2018-05-26T15:51:51.372Z,31.19
2018-05-26T15:54:20.071Z,30.82
2018-05-26T15:56:48.456Z,31.11
2018-05-26T15:59:16.802Z,30.76
2018-05-26T16:01:45.566Z,30.33
2018-05-26T16:04:13.976Z,30.13
2018-05-26T16:06:42.363Z,31.72
2018-05-26T16:09:12.332Z,33.12
2018-05-26T16:11:40.698Z,32.72
2018-05-26T16:14:09.035Z,32.59
2018-05-26T16:16:37.397Z,32.49
2018-05-26T16:19:06.952Z,33.08
2018-05-26T16:21:35.305Z,32.96
2018-05-26T16:24:03.639Z,31.13
2018-05-26T16:26:32.868Z,30.94
2018-05-26T16:29:01.296Z,30.98
2018-05-26T16:31:29.650Z,31.47
2018-05-26T16:33:57.988Z,31.85
2018-05-26T16:36:26.356Z,31.64
2018-05-26T16:38:55.247Z,32.23
2018-05-26T16:41:23.594Z,32.93
2018-05-26T16:43:52.697Z,32.90
2018-05-26T16:46:21.060Z,34.45
2018-05-26T16:48:49.460Z,36.28
2018-05-26T16:51:17.825Z,37.71
2018-05-26T16:53:46.189Z,39.38
2018-05-26T16:56:14.517Z,42.22
2018-05-26T16:58:42.886Z,40.62
2018-05-26T17:01:11.264Z,37.00
2018-05-26T17:03:39.623Z,37.42
2018-05-26T17:06:08.441Z,38.24
2018-05-26T17:08:36.836Z,39.59
2018-05-26T17:11:06.424Z,41.12
2018-05-26T17:13:34.906Z,42.47
2018-05-26T17:16:03.243Z,40.01
2018-05-26T17:18:31.597Z,41.97
2018-05-26T17:21:00.238Z,42.19
2018-05-26T17:23:28.601Z,43.20
2018-05-26T17:25:56.929Z,42.72
2018-05-26T17:28:26.189Z,42.29
2018-05-26T17:30:54.538Z,41.29
2018-05-26T17:33:23.799Z,39.75
2018-05-26T17:35:52.247Z,39.51
2018-05-26T17:38:21.565Z,42.10
2018-05-26T17:40:49.909Z,39.38
2018-05-26T17:43:18.301Z,45.63
2018-05-26T17:45:46.660Z,47.46
2018-05-26T17:48:15.643Z,47.39
2018-05-26T17:50:44.019Z,47.43
2018-05-26T17:53:12.748Z,48.47
2018-05-26T17:55:41.997Z,48.03
2018-05-26T17:58:10.371Z,49.76
2018-05-26T18:00:39.391Z,48.86
2018-05-26T18:03:07.994Z,49.74
2018-05-26T18:05:36.631Z,53.41
2018-05-26T18:08:05.364Z,53.39
2018-05-26T18:10:33.697Z,52.47
2018-05-26T18:13:02.915Z,51.29
2018-05-26T18:15:31.257Z,49.46
2018-05-26T18:17:59.665Z,48.88
2018-05-26T18:20:28.052Z,49.56
2018-05-26T18:22:56.394Z,48.96
2018-05-26T18:25:25.129Z,51.44
2018-05-26T18:27:53.814Z,50.82
2018-05-26T18:30:22.161Z,49.98
2018-05-26T18:32:51.444Z,47.17
2018-05-26T18:35:20.251Z,46.03
2018-05-26T18:37:48.610Z,44.72
2018-05-26T18:40:16.924Z,45.76
2018-05-26T18:42:45.806Z,47.06
2018-05-26T18:45:14.365Z,48.12
2018-05-26T18:47:42.753Z,48.27
2018-05-26T18:50:11.524Z,49.30
2018-05-26T18:52:39.892Z,51.20
2018-05-26T18:55:08.284Z,50.77
2018-05-26T18:57:37.115Z,50.20
2018-05-26T19:00:07.406Z,51.78
2018-05-26T19:02:36.545Z,52.25
2018-05-26T19:05:04.892Z,52.49
2018-05-26T19:07:33.514Z,52.76
2018-05-26T19:10:02.566Z,53.18
2018-05-26T19:12:31.297Z,53.15
2018-05-26T19:14:59.626Z,53.70
2018-05-26T19:17:27.997Z,54.58
2018-05-26T19:19:56.312Z,55.22
2018-05-26T19:22:24.672Z,54.49
2018-05-26T19:24:53.395Z,53.72
2018-05-26T19:27:21.776Z,53.41
2018-05-26T19:29:50.106Z,54.02
2018-05-26T19:32:18.491Z,56.29
2018-05-26T19:34:46.943Z,56.28
2018-05-26T19:37:15.377Z,55.84
2018-05-26T19:39:43.704Z,55.79
2018-05-26T19:42:12.065Z,55.80
2018-05-26T19:44:41.193Z,56.27
2018-05-26T19:47:09.533Z,56.23
2018-05-26T19:49:37.931Z,56.75
2018-05-26T19:52:06.318Z,57.19
2018-05-26T19:54:34.744Z,57.38
2018-05-26T19:57:03.934Z,57.19
2018-05-26T19:59:32.311Z,57.27
2018-05-26T20:02:00.922Z,57.66
2018-05-26T20:04:29.292Z,57.13
2018-05-26T20:06:57.665Z,57.21
2018-05-26T20:09:26.044Z,56.58
2018-05-26T20:11:54.815Z,56.91
2018-05-26T20:14:23.173Z,56.94
2018-05-26T20:16:51.618Z,56.71
2018-05-26T20:19:19.970Z,57.52
2018-05-26T20:21:48.341Z,58.29
2018-05-26T20:24:16.680Z,58.80
2018-05-26T20:26:45.010Z,58.38
2018-05-26T20:29:13.372Z,58.28
2018-05-26T20:31:41.698Z,58.62
2018-05-26T20:34:10.102Z,58.08
2018-05-26T20:36:38.540Z,57.97
2018-05-26T20:39:07.577Z,57.93
2018-05-26T20:41:37.341Z,58.61
2018-05-26T20:44:05.716Z,58.59
2018-05-26T20:46:34.058Z,58.29
2018-05-26T20:49:03.248Z,58.75
2018-05-26T20:51:31.573Z,58.85
2018-05-26T20:53:59.937Z,58.92
2018-05-26T20:56:28.831Z,59.27
2018-05-26T20:58:57.187Z,60.36
2018-05-26T21:01:26.445Z,60.67
2018-05-26T21:03:55.443Z,61.12
2018-05-26T21:06:24.173Z,61.72
2018-05-26T21:08:52.521Z,62.24
2018-05-26T21:11:20.862Z,61.59
2018-05-26T21:13:49.230Z,62.18
2018-05-26T21:16:17.635Z,61.76
2018-05-26T21:18:46.240Z,62.05
2018-05-26T21:21:14.655Z,61.61
2018-05-26T21:23:42.985Z,61.81
2018-05-26T21:26:13.082Z,61.69
2018-05-26T21:28:42.164Z,61.88
2018-05-26T21:31:10.492Z,61.58
2018-05-26T21:33:38.836Z,61.71
2018-05-26T21:36:07.185Z,61.63
2018-05-26T21:38:35.866Z,61.83
2018-05-26T21:41:04.234Z,60.78
2018-05-26T21:43:33.510Z,61.46
2018-05-26T21:46:01.847Z,61.09
2018-05-26T21:48:30.817Z,61.26
2018-05-26T21:50:59.184Z,61.40
2018-05-26T21:53:27.887Z,61.33
2018-05-26T21:55:56.239Z,60.68
2018-05-26T21:58:25.144Z,60.36
2018-05-26T22:00:55.018Z,60.83
2018-05-26T22:03:23.935Z,61.13
2018-05-26T22:05:52.574Z,60.85
2018-05-26T22:08:21.336Z,61.12
2018-05-26T22:10:49.671Z,60.99
2018-05-26T22:13:18.073Z,61.55
2018-05-26T22:15:46.408Z,61.38
2018-05-26T22:18:14.821Z,61.22
2018-05-26T22:20:43.114Z,61.26
2018-05-26T22:23:11.495Z,61.10
2018-05-26T22:25:39.834Z,61.13
2018-05-26T22:28:08.191Z,60.88
2018-05-26T22:30:36.850Z,60.61
2018-05-26T22:33:05.920Z,60.74
2018-05-26T22:35:34.560Z,61.43
2018-05-26T22:38:03.066Z,61.64
2018-05-26T22:40:31.762Z,61.46
2018-05-26T22:43:00.484Z,61.92
2018-05-26T22:45:28.824Z,61.84
2018-05-26T22:47:57.892Z,61.70
2018-05-26T22:50:26.639Z,61.41
2018-05-26T22:52:55.975Z,61.14
2018-05-26T22:55:24.762Z,61.47
2018-05-26T22:57:53.098Z,61.25
2018-05-26T23:00:24.456Z,61.47
2018-05-26T23:02:53.723Z,61.10
2018-05-26T23:05:22.083Z,60.75
2018-05-26T23:07:50.405Z,60.71
2018-05-26T23:10:19.525Z,60.91
2018-05-26T23:12:47.957Z,60.77
2018-05-26T23:15:17.469Z,60.81
2018-05-26T23:17:45.817Z,60.93
2018-05-26T23:20:14.470Z,61.12
2018-05-26T23:22:42.811Z,61.53
2018-05-26T23:25:11.812Z,61.49
2018-05-26T23:27:41.010Z,61.22
2018-05-26T23:30:09.905Z,62.00
2018-05-26T23:32:38.598Z,62.54
2018-05-26T23:35:06.974Z,62.97
2018-05-26T23:37:36.250Z,63.62
2018-05-26T23:40:04.850Z,63.54
2018-05-26T23:42:33.206Z,63.77
2018-05-26T23:45:01.932Z,64.21
2018-05-26T23:47:30.315Z,64.80
2018-05-26T23:49:58.761Z,64.61
2018-05-26T23:52:27.122Z,64.37
2018-05-26T23:54:55.490Z,64.53
2018-05-26T23:57:23.823Z,64.52
2018-05-26T23:59:52.814Z,64.56
